EW2514 Weather Reports


time (UTC)temp
F
wind
direction
speed
knots
gust
knots
rain 1hr
in
rain 24hr
in
rain mn
in
humidity
%
barometer
mb
20260510094532 57 296 0.0 2.6 0.00 0.00 0.00 82 1013.3
20260510093103 57 66 0.0 0.9 0.00 0.00 0.00 83 1013.2
20260510091536 57 66 0.0 0.9 0.00 0.00 0.00 83 1013.1
20260510084533 57 66 0.0 2.6 0.00 0.00 0.00 84 1013.4
20260510083102 56 45 0.0 1.7 0.00 0.00 0.00 87 1013.1
20260510081527 56 45 0.0 3.5 0.00 0.00 0.00 88 1013.2
20260510080059 57 62 0.9 2.6 0.00 0.00 0.00 91 1013.0
20260510074522 58 228 0.0 0.0 0.00 0.00 0.00 92 1012.8
20260510073054 58 228 0.0 0.0 0.00 0.00 0.00 92 1012.8
20260510071534 58 228 0.0 0.0 0.00 0.00 0.00 89 1012.5
20260510070053 58 228 0.0 0.0 0.00 0.00 0.00 89 1012.7
20260510064521 59 228 0.0 1.7 0.00 0.00 0.00 89 1012.9
20260510063053 59 239 0.0 0.9 0.00 0.00 0.00 89 1012.9
20260510061536 60 239 0.0 0.0 0.00 0.00 0.00 88 1013.0
20260510060053 60 239 0.0 0.9 0.00 0.00 0.00 87 1013.0
20260510054521 61 100 0.9 1.7 0.00 0.00 0.00 86 1013.1
20260510053052 61 100 0.0 0.0 0.00 0.00 0.00 84 1012.9
20260510051521 62 100 0.0 1.7 0.00 0.00 0.00 85 1012.8
20260510050052 62 100 0.0 0.0 0.00 0.00 0.00 82 1012.5
20260510044521 63 100 0.0 0.9 0.00 0.00 0.00 82 1012.4
20260510043057 63 100 0.0 0.9 0.00 0.00 0.00 80 1012.5
20260510041521 64 100 0.0 0.0 0.00 0.00 0.00 74 1012.3
20260510040058 65 101 0.0 0.0 0.00 0.00 0.00 75 1011.9
20260510034522 65 101 0.0 0.0 0.00 0.00 0.00 73 1011.9
20260510033113 66 101 0.0 0.9 0.00 0.00 0.00 72 1011.8
20260510031536 66 101 0.0 0.0 0.00 0.00 0.00 70 1011.6
20260510030054 66 101 0.0 0.0 0.00 0.00 0.00 65 1011.5
20260510024534 67 101 0.0 0.0 0.00 0.00 0.00 64 1011.1
20260510023054 69 101 0.0 0.0 0.00 0.00 0.00 66 1010.7
20260510021525 70 101 0.9 2.6 0.00 0.00 0.00 60 1010.5
20260510020055 72 102 0.0 2.6 0.00 0.00 0.00 52 1010.3
20260510014525 74 160 0.9 2.6 0.00 0.00 0.00 49 1010.0
20260510013057 76 204 0.0 2.6 0.00 0.00 0.00 47 1009.7
20260510011534 77 183 0.9 4.3 0.00 0.00 0.00 44 1009.5
20260510010056 78 359 0.9 1.7 0.00 0.00 0.00 44 1009.4
20260510004525 80 359 1.7 3.5 0.00 0.00 0.00 43 1009.2
20260510003116 82 359 1.7 2.6 0.00 0.00 0.00 36 1009.1
20260510001529 83 359 0.0 1.7 0.00 0.00 0.00 34 1009.0
20260509234529 83 359 0.0 3.5 0.00 0.00 0.00 34 1009.1
20260509233057 83 359 1.7 4.3 0.00 0.00 0.00 35 1009.0
20260509231531 83 235 2.6 7.0 0.00 0.00 0.00 34 1009.1
20260509230108 85 205 0.9 5.2 0.00 0.00 0.00 32 1009.0
20260509224526 85 208 0.0 3.5 0.00 0.00 0.00 31 1009.0
20260509223101 85 196 0.9 3.5 0.00 0.00 0.00 29 1009.0
20260509221527 85 281 1.7 3.5 0.00 0.00 0.00 28 1009.1
20260509220058 85 359 1.7 4.3 0.00 0.00 0.00 28 1009.1
20260509214527 85 263 0.9 4.3 0.00 0.00 0.00 28 1009.1
20260509213101 85 265 2.6 4.3 0.00 0.00 0.00 29 1009.2
20260509211528 84 295 1.7 5.2 0.00 0.00 0.00 29 1009.1
20260509210104 84 359 0.9 6.1 0.00 0.00 0.00 32 1009.2
20260509204530 83 174 3.5 7.0 0.00 0.00 0.00 31 1009.3
20260509203100 85 178 1.7 3.5 0.00 0.00 0.00 29 1009.5
20260509201530 86 251 2.6 6.1 0.00 0.00 0.00 27 1009.8
20260509200103 83 359 0.9 7.8 0.00 0.00 0.00 32 1010.0
20260509194535 83 359 2.6 7.0 0.00 0.00 0.00 33 1010.0
20260509193102 83 359 1.7 7.8 0.00 0.00 0.00 34 1010.1
20260509191531 82 237 0.9 3.5 0.00 0.00 0.00 39 1010.3
20260509190101 83 269 2.6 5.2 0.00 0.00 0.00 34 1010.3
20260509184534 82 181 0.9 6.1 0.00 0.00 0.00 38 1010.3
20260509183139 81 359 4.3 7.8 0.00 0.00 0.00 37 1010.3
20260509181542 81 2.6 8.7 0.00 0.00 0.00 38 1010.3
20260509174535 81 359 2.6 5.2 0.00 0.00 0.00 41 1010.5
20260509173106 79 359 1.7 5.2 0.00 0.00 0.00 46 1010.8
20260509171532 79 2.6 6.1 0.00 0.00 0.00 45 1010.9
20260509164531 77 359 0.9 5.2 0.00 0.00 0.00 50 1011.0
20260509163103 76 359 1.7 5.2 0.00 0.00 0.00 55 1011.1
20260509161535 74 359 2.6 4.3 0.00 0.00 0.00 60 1011.1
20260509154531 71 359 1.7 4.3 0.00 0.00 0.00 66 1011.2
20260509153102 70 359 0.0 1.7 0.00 0.00 0.00 71 1011.1
20260509151531 68 254 0.0 2.6 0.00 0.00 0.00 72 1011.1
20260509144537 65 359 0.0 2.6 0.00 0.00 0.00 77 1011.3
20260509143102 63 359 0.9 2.6 0.00 0.00 0.00 81 1011.2
20260509141531 62 359 0.0 2.6 0.00 0.00 0.00 82 1011.2
20260509140107 61 289 0.0 2.6 0.00 0.00 0.00 83 1011.1
20260509134532 60 359 0.9 2.6 0.00 0.00 0.00 85 1011.1
20260509133110 58 359 0.9 3.5 0.00 0.00 0.00 87 1011.1
20260509131531 57 359 0.9 2.6 0.00 0.00 0.00 89 1010.9
20260509124532 55 359 0.9 2.6 0.00 0.00 0.00 93 1010.8
20260509123002 53 359 0.0 1.7 0.00 0.00 0.00 94 1010.8
20260509121537 53 359 0.0 0.9 0.00 0.00 0.00 95 1010.7
20260509120002 52 276 0.0 0.0 0.00 0.00 0.00 94 1010.5
20260509114532 52 276 0.0 0.0 0.00 0.00 0.00 93 1010.3
20260509113001 52 276 0.0 0.0 0.00 0.00 0.00 93 1010.1
20260509111532 52 276 0.0 0.0 0.00 0.00 0.00 92 1009.9
20260509110002 52 276 0.0 0.0 0.00 0.00 0.00 92 1009.7
20260509104540 53 276 0.0 0.0 0.00 0.00 0.00 91 1009.7
20260509103003 53 276 0.0 0.0 0.00 0.00 0.00 90 1009.6
20260509101541 54 276 0.0 0.9 0.00 0.00 0.00 90 1009.7
20260509100004 54 276 0.0 0.9 0.00 0.00 0.00 89 1009.7